Time,TemperatureF,DewpointF,PressureIn,WindDirection,WindDirectionDegrees,WindSpeedMPH,WindSpeedGustMPH,Humidity,HourlyPrecipIn,Conditions,Clouds,dailyrainin,SoftwareType,DateUTC
2013-05-31 00:04:00,52.2,45.9,30.22,NW,304,2.0,6.0,79,-0.04,,,0.00,Weather View 32 v70,2013-05-31 07:04:00,
2013-05-31 00:09:00,52.5,45.8,30.22,NW,304,0.0,6.0,78,-0.04,,,0.00,Weather View 32 v70,2013-05-31 07:09:00,
2013-05-31 00:14:00,52.5,45.5,30.22,WNW,295,0.0,6.0,77,-0.04,,,0.00,Weather View 32 v70,2013-05-31 07:14:00,
2013-05-31 00:19:00,52.5,45.5,30.22,WNW,295,0.0,6.0,77,-0.04,,,0.00,Weather View 32 v70,2013-05-31 07:19:00,
2013-05-31 00:24:00,52.5,45.5,30.23,WNW,291,0.0,6.0,77,-0.04,,,0.00,Weather View 32 v70,2013-05-31 07:24:00,
2013-05-31 00:29:00,52.3,45.3,30.22,WNW,290,0.0,6.0,77,-0.04,,,0.00,Weather View 32 v70,2013-05-31 07:29:00,
2013-05-31 00:34:00,52.2,45.2,30.22,WNW,290,1.0,6.0,77,-0.04,,,0.00,Weather View 32 v70,2013-05-31 07:34:00,
2013-05-31 00:39:00,52.3,45.3,30.22,WNW,290,0.0,6.0,77,-0.04,,,0.00,Weather View 32 v70,2013-05-31 07:39:00,
2013-05-31 00:44:00,52.2,45.2,30.23,WNW,290,1.0,6.0,77,-0.04,,,0.00,Weather View 32 v70,2013-05-31 07:44:00,
2013-05-31 00:49:00,52.2,45.2,30.23,WNW,290,0.0,6.0,77,-0.04,,,0.00,Weather View 32 v70,2013-05-31 07:49:00,
2013-05-31 00:54:00,52.0,45.0,30.23,WNW,290,1.0,6.0,77,-0.04,,,0.00,Weather View 32 v70,2013-05-31 07:54:00,
2013-05-31 00:59:00,51.9,44.9,30.23,WNW,284,1.0,6.0,77,0.00,,,0.00,Weather View 32 v70,2013-05-31 07:59:00,
2013-05-31 01:04:00,52.0,45.0,30.23,WNW,283,2.0,6.0,77,0.00,,,0.00,Weather View 32 v70,2013-05-31 08:04:00,
2013-05-31 01:09:00,52.2,44.8,30.23,WNW,283,3.0,6.0,76,0.00,,,0.00,Weather View 32 v70,2013-05-31 08:09:00,
2013-05-31 01:14:00,52.2,44.8,30.23,WNW,283,3.0,5.0,76,0.00,,,0.00,Weather View 32 v70,2013-05-31 08:14:00,
2013-05-31 01:19:00,52.3,44.9,30.23,WNW,283,1.0,7.0,76,0.00,,,0.00,Weather View 32 v70,2013-05-31 08:19:00,
2013-05-31 01:24:00,52.3,44.9,30.23,WNW,282,2.0,7.0,76,0.00,,,0.00,Weather View 32 v70,2013-05-31 08:24:00,
2013-05-31 01:29:00,52.3,44.9,30.23,West,277,1.0,7.0,76,0.00,,,0.00,Weather View 32 v70,2013-05-31 08:29:00,
2013-05-31 01:34:00,52.2,44.8,30.23,West,263,3.0,7.0,76,0.00,,,0.00,Weather View 32 v70,2013-05-31 08:34:00,
2013-05-31 01:39:00,52.0,44.7,30.23,West,263,0.0,7.0,76,0.00,,,0.00,Weather View 32 v70,2013-05-31 08:39:00,
2013-05-31 01:44:00,52.0,45.0,30.23,West,275,2.0,7.0,77,0.00,,,0.00,Weather View 32 v70,2013-05-31 08:44:00,
2013-05-31 01:49:00,52.0,45.0,30.23,West,274,2.0,8.0,77,0.00,,,0.00,Weather View 32 v70,2013-05-31 08:49:00,
2013-05-31 01:54:00,52.2,45.2,30.23,West,266,1.0,8.0,77,0.00,,,0.00,Weather View 32 v70,2013-05-31 08:54:00,
2013-05-31 01:59:00,52.0,45.0,30.23,West,267,1.0,8.0,77,0.00,,,0.00,Weather View 32 v70,2013-05-31 08:59:00,
2013-05-31 02:04:00,51.9,44.9,30.23,WNW,285,4.0,8.0,77,0.00,,,0.00,Weather View 32 v70,2013-05-31 09:04:00,
2013-05-31 02:09:00,51.9,45.2,30.23,WNW,288,3.0,8.0,78,0.00,,,0.00,Weather View 32 v70,2013-05-31 09:09:00,
2013-05-31 02:14:00,51.9,45.2,30.23,WNW,289,0.0,8.0,78,0.00,,,0.00,Weather View 32 v70,2013-05-31 09:14:00,
2013-05-31 02:19:00,51.9,45.2,30.24,WNW,289,0.0,8.0,78,0.00,,,0.00,Weather View 32 v70,2013-05-31 09:19:00,
2013-05-31 02:24:00,51.6,45.0,30.24,WNW,289,1.0,8.0,78,0.00,,,0.00,Weather View 32 v70,2013-05-31 09:24:00,
2013-05-31 02:29:00,51.4,45.1,30.24,WNW,288,1.0,8.0,79,0.00,,,0.00,Weather View 32 v70,2013-05-31 09:29:00,
2013-05-31 02:34:00,51.4,45.1,30.24,WNW,288,0.0,8.0,79,0.00,,,0.00,Weather View 32 v70,2013-05-31 09:34:00,
2013-05-31 02:39:00,51.3,45.0,30.24,WNW,288,1.0,8.0,79,0.00,,,0.00,Weather View 32 v70,2013-05-31 09:39:00,
2013-05-31 02:44:00,51.4,45.1,30.24,WNW,282,0.0,8.0,79,0.00,,,0.00,Weather View 32 v70,2013-05-31 09:44:00,
2013-05-31 02:49:00,51.3,45.0,30.24,WNW,282,4.0,7.0,79,0.00,,,0.00,Weather View 32 v70,2013-05-31 09:49:00,
2013-05-31 02:54:00,51.1,44.8,30.24,WNW,282,0.0,7.0,79,0.00,,,0.00,Weather View 32 v70,2013-05-31 09:54:00,
2013-05-31 02:59:00,50.7,44.4,30.24,WNW,282,0.0,7.0,79,0.00,,,0.00,Weather View 32 v70,2013-05-31 09:59:00,
2013-05-31 03:04:00,50.2,43.9,30.24,WNW,282,0.0,7.0,79,0.00,,,0.00,Weather View 32 v70,2013-05-31 10:04:00,
2013-05-31 03:09:00,50.1,44.5,30.24,WNW,282,0.0,7.0,81,0.00,,,0.00,Weather View 32 v70,2013-05-31 10:09:00,
2013-05-31 03:14:00,49.9,44.3,30.24,WNW,282,0.0,6.0,81,0.00,,,0.00,Weather View 32 v70,2013-05-31 10:14:00,
2013-05-31 03:19:00,50.4,44.8,30.24,WNW,282,3.0,6.0,81,0.00,,,0.00,Weather View 32 v70,2013-05-31 10:19:00,
2013-05-31 03:24:00,50.5,44.9,30.24,WNW,282,2.0,6.0,81,0.00,,,0.00,Weather View 32 v70,2013-05-31 10:24:00,
2013-05-31 03:29:00,50.5,44.9,30.24,WNW,282,0.0,6.0,81,0.00,,,0.00,Weather View 32 v70,2013-05-31 10:29:00,
2013-05-31 03:34:00,50.5,44.9,30.24,WNW,282,2.0,6.0,81,0.00,,,0.00,Weather View 32 v70,2013-05-31 10:34:00,
2013-05-31 03:39:00,50.5,44.9,30.24,WNW,283,0.0,6.0,81,0.00,,,0.00,Weather View 32 v70,2013-05-31 10:39:00,
2013-05-31 03:44:00,50.2,44.6,30.24,WNW,283,0.0,6.0,81,0.00,,,0.00,Weather View 32 v70,2013-05-31 10:44:00,
2013-05-31 03:49:00,49.8,44.2,30.24,WNW,283,0.0,6.0,81,0.00,,,0.00,Weather View 32 v70,2013-05-31 10:49:00,
2013-05-31 03:54:00,49.5,44.2,30.24,WNW,283,0.0,6.0,82,0.00,,,0.00,Weather View 32 v70,2013-05-31 10:54:00,
2013-05-31 03:59:00,49.4,44.4,30.24,WNW,283,0.0,6.0,83,0.00,,,0.00,Weather View 32 v70,2013-05-31 10:59:00,
2013-05-31 04:04:00,49.2,44.2,30.24,WNW,283,0.0,6.0,83,0.00,,,0.00,Weather View 32 v70,2013-05-31 11:04:00,
2013-05-31 04:09:00,49.1,44.2,30.24,WNW,283,0.0,6.0,83,0.00,,,0.00,Weather View 32 v70,2013-05-31 11:09:00,
2013-05-31 04:14:00,48.8,44.2,30.23,WNW,283,0.0,6.0,84,0.00,,,0.00,Weather View 32 v70,2013-05-31 11:14:00,
2013-05-31 04:19:00,48.5,43.9,30.23,WNW,283,0.0,4.0,84,0.00,,,0.00,Weather View 32 v70,2013-05-31 11:19:00,
2013-05-31 04:24:00,48.5,44.2,30.24,WNW,283,0.0,4.0,85,0.00,,,0.00,Weather View 32 v70,2013-05-31 11:24:00,
2013-05-31 04:29:00,48.5,44.5,30.24,WNW,283,0.0,3.0,86,0.00,,,0.00,Weather View 32 v70,2013-05-31 11:29:00,
2013-05-31 04:34:00,48.2,43.9,30.24,WNW,283,0.0,3.0,85,0.00,,,0.00,Weather View 32 v70,2013-05-31 11:34:00,
2013-05-31 04:39:00,47.6,43.0,30.24,WNW,283,0.0,0.0,84,0.00,,,0.00,Weather View 32 v70,2013-05-31 11:39:00,
2013-05-31 04:44:00,47.0,42.4,30.24,WNW,283,0.0,0.0,84,0.00,,,0.00,Weather View 32 v70,2013-05-31 11:44:00,
2013-05-31 04:49:00,46.4,41.8,30.25,WNW,283,0.0,0.0,84,0.00,,,0.00,Weather View 32 v70,2013-05-31 11:49:00,
2013-05-31 04:54:00,46.0,41.7,30.25,WNW,283,0.0,0.0,85,0.00,,,0.00,Weather View 32 v70,2013-05-31 11:54:00,
2013-05-31 04:59:00,45.7,41.4,30.25,WNW,283,0.0,0.0,85,0.00,,,0.00,Weather View 32 v70,2013-05-31 11:59:00,
2013-05-31 05:04:00,45.7,42.0,30.25,WNW,283,0.0,0.0,87,0.00,,,0.00,Weather View 32 v70,2013-05-31 12:04:00,
2013-05-31 05:09:00,45.7,42.0,30.25,WNW,283,0.0,0.0,87,0.00,,,0.00,Weather View 32 v70,2013-05-31 12:09:00,
2013-05-31 05:14:00,45.2,41.6,30.26,WNW,283,0.0,0.0,87,0.00,,,0.00,Weather View 32 v70,2013-05-31 12:14:00,
2013-05-31 05:19:00,45.1,41.8,30.26,WNW,283,0.0,0.0,88,0.00,,,0.00,Weather View 32 v70,2013-05-31 12:19:00,
2013-05-31 05:24:00,45.1,41.8,30.26,WNW,283,0.0,0.0,88,0.00,,,0.00,Weather View 32 v70,2013-05-31 12:24:00,
2013-05-31 05:29:00,45.5,42.4,30.26,WNW,283,0.0,0.0,89,0.00,,,0.00,Weather View 32 v70,2013-05-31 12:29:00,
2013-05-31 05:34:00,45.7,42.6,30.26,WNW,283,0.0,0.0,89,0.00,,,0.00,Weather View 32 v70,2013-05-31 12:34:00,
2013-05-31 05:39:00,45.5,42.4,30.26,WNW,283,0.0,0.0,89,0.00,,,0.00,Weather View 32 v70,2013-05-31 12:39:00,
2013-05-31 05:44:00,45.4,42.0,30.26,WNW,283,0.0,0.0,88,0.00,,,0.00,Weather View 32 v70,2013-05-31 12:44:00,
2013-05-31 05:49:00,45.4,42.0,30.26,WNW,283,0.0,0.0,88,0.00,,,0.00,Weather View 32 v70,2013-05-31 12:49:00,
2013-05-31 05:54:00,45.2,41.9,30.26,WNW,283,0.0,0.0,88,0.00,,,0.00,Weather View 32 v70,2013-05-31 12:54:00,
2013-05-31 05:59:00,45.1,41.8,30.26,WNW,283,0.0,0.0,88,0.00,,,0.00,Weather View 32 v70,2013-05-31 12:59:00,
2013-05-31 06:04:00,45.2,42.1,30.26,WNW,283,0.0,0.0,89,0.00,,,0.00,Weather View 32 v70,2013-05-31 13:04:00,
2013-05-31 06:09:00,45.5,42.4,30.26,WNW,283,0.0,0.0,89,0.00,,,0.00,Weather View 32 v70,2013-05-31 13:09:00,
2013-05-31 06:14:00,46.1,43.3,30.27,WNW,283,0.0,0.0,90,0.00,,,0.00,Weather View 32 v70,2013-05-31 13:14:00,
2013-05-31 06:19:00,46.7,43.9,30.27,WNW,283,0.0,0.0,90,0.00,,,0.00,Weather View 32 v70,2013-05-31 13:19:00,
2013-05-31 06:24:00,47.3,44.5,30.27,WNW,283,0.0,0.0,90,0.00,,,0.00,Weather View 32 v70,2013-05-31 13:24:00,
2013-05-31 06:29:00,48.2,45.4,30.27,WNW,284,1.0,3.0,90,0.00,,,0.00,Weather View 32 v70,2013-05-31 13:29:00,
2013-05-31 06:34:00,48.6,45.8,30.27,WNW,284,0.0,5.0,90,0.00,,,0.00,Weather View 32 v70,2013-05-31 13:34:00,
2013-05-31 06:39:00,48.8,46.0,30.27,WNW,284,1.0,5.0,90,0.00,,,0.00,Weather View 32 v70,2013-05-31 13:39:00,
2013-05-31 06:44:00,48.3,44.6,30.27,WNW,284,0.0,5.0,87,0.00,,,0.00,Weather View 32 v70,2013-05-31 13:44:00,
2013-05-31 06:49:00,48.2,44.8,30.27,WNW,284,0.0,5.0,88,0.00,,,0.00,Weather View 32 v70,2013-05-31 13:49:00,
2013-05-31 06:54:00,48.2,44.5,30.27,WNW,284,0.0,5.0,87,0.00,,,0.00,Weather View 32 v70,2013-05-31 13:54:00,
2013-05-31 06:59:00,48.2,44.2,30.28,WNW,284,0.0,5.0,86,0.00,,,0.00,Weather View 32 v70,2013-05-31 13:59:00,
2013-05-31 07:04:00,48.8,45.1,30.27,NNE,28,3.0,5.0,87,0.00,,,0.00,Weather View 32 v70,2013-05-31 14:04:00,
2013-05-31 07:09:00,49.4,45.7,30.28,NNE,32,0.0,5.0,87,0.00,,,0.00,Weather View 32 v70,2013-05-31 14:09:00,
2013-05-31 07:14:00,49.9,45.9,30.27,NNE,32,0.0,5.0,86,0.00,,,0.00,Weather View 32 v70,2013-05-31 14:14:00,
2013-05-31 07:19:00,50.4,47.0,30.28,NW,307,5.0,5.0,88,0.00,,,0.00,Weather View 32 v70,2013-05-31 14:19:00,
2013-05-31 07:24:00,50.8,46.4,30.28,NW,305,5.0,6.0,85,0.00,,,0.00,Weather View 32 v70,2013-05-31 14:24:00,
2013-05-31 07:29:00,51.1,46.4,30.28,WNW,303,1.0,6.0,84,0.00,,,0.00,Weather View 32 v70,2013-05-31 14:29:00,
2013-05-31 07:34:00,51.3,46.6,30.28,WNW,295,2.0,7.0,84,0.00,,,0.00,Weather View 32 v70,2013-05-31 14:34:00,
2013-05-31 07:39:00,51.6,46.6,30.28,WNW,296,1.0,7.0,83,0.00,,,0.00,Weather View 32 v70,2013-05-31 14:39:00,
2013-05-31 07:44:00,51.7,46.4,30.28,WNW,303,2.0,7.0,82,0.00,,,0.00,Weather View 32 v70,2013-05-31 14:44:00,
2013-05-31 07:49:00,52.2,46.9,30.28,WNW,303,3.0,7.0,82,0.00,,,0.00,Weather View 32 v70,2013-05-31 14:49:00,
2013-05-31 07:54:00,52.6,46.9,30.28,WNW,293,5.0,7.0,81,0.00,,,0.00,Weather View 32 v70,2013-05-31 14:54:00,
2013-05-31 07:59:00,53.1,46.7,30.29,WNW,301,3.0,9.0,79,0.00,,,0.00,Weather View 32 v70,2013-05-31 14:59:00,
2013-05-31 08:04:00,53.3,46.6,30.29,NW,319,5.0,10.0,78,0.00,,,0.00,Weather View 32 v70,2013-05-31 15:04:00,
2013-05-31 08:09:00,53.5,46.5,30.29,WNW,303,5.0,10.0,77,0.00,,,0.00,Weather View 32 v70,2013-05-31 15:09:00,
2013-05-31 08:14:00,53.6,46.5,30.29,NW,307,2.0,11.0,77,0.00,,,0.00,Weather View 32 v70,2013-05-31 15:14:00,
2013-05-31 08:19:00,54.1,47.0,30.29,NW,305,1.0,11.0,77,0.00,,,0.00,Weather View 32 v70,2013-05-31 15:19:00,
2013-05-31 08:24:00,54.2,46.4,30.29,WNW,284,6.0,11.0,75,0.00,,,0.00,Weather View 32 v70,2013-05-31 15:24:00,
2013-05-31 08:29:00,54.2,46.4,30.29,WNW,300,2.0,11.0,75,0.00,,,0.00,Weather View 32 v70,2013-05-31 15:29:00,
2013-05-31 08:34:00,54.4,46.6,30.30,NW,308,9.0,11.0,75,0.00,,,0.00,Weather View 32 v70,2013-05-31 15:34:00,
2013-05-31 08:39:00,54.7,46.6,30.30,West,269,1.0,11.0,74,0.00,,,0.00,Weather View 32 v70,2013-05-31 15:39:00,
2013-05-31 08:44:00,54.7,46.6,30.30,NW,319,4.0,12.0,74,0.00,,,0.00,Weather View 32 v70,2013-05-31 15:44:00,
2013-05-31 08:49:00,55.1,46.9,30.30,NW,304,5.0,12.0,74,0.00,,,0.00,Weather View 32 v70,2013-05-31 15:49:00,
2013-05-31 08:54:00,55.3,46.8,30.30,WNW,287,2.0,12.0,73,0.00,,,0.00,Weather View 32 v70,2013-05-31 15:54:00,
2013-05-31 08:59:00,55.6,46.7,30.30,NW,313,6.0,12.0,72,0.00,,,0.00,Weather View 32 v70,2013-05-31 15:59:00,
2013-05-31 09:04:00,55.9,47.0,30.30,NW,309,1.0,12.0,72,0.00,,,0.00,Weather View 32 v70,2013-05-31 16:04:00,
2013-05-31 09:09:00,56.3,47.0,30.29,NW,312,5.0,12.0,71,0.00,,,0.00,Weather View 32 v70,2013-05-31 16:09:00,
2013-05-31 09:14:00,56.5,46.4,30.29,NW,319,2.0,12.0,69,0.00,,,0.00,Weather View 32 v70,2013-05-31 16:14:00,
2013-05-31 09:19:00,56.7,46.6,30.29,WNW,299,3.0,12.0,69,0.00,,,0.00,Weather View 32 v70,2013-05-31 16:19:00,
2013-05-31 09:24:00,57.0,46.5,30.29,WNW,302,8.0,12.0,68,0.00,,,0.00,Weather View 32 v70,2013-05-31 16:24:00,
2013-05-31 09:29:00,57.5,46.6,30.29,West,274,5.0,12.0,67,0.00,,,0.00,Weather View 32 v70,2013-05-31 16:29:00,
2013-05-31 09:34:00,57.8,46.9,30.29,NW,309,3.0,12.0,67,0.00,,,0.00,Weather View 32 v70,2013-05-31 16:34:00,
2013-05-31 09:39:00,58.1,46.8,30.28,West,270,3.0,12.0,66,0.00,,,0.00,Weather View 32 v70,2013-05-31 16:39:00,
2013-05-31 09:44:00,58.4,46.7,30.29,WNW,301,5.0,12.0,65,0.00,,,0.00,Weather View 32 v70,2013-05-31 16:44:00,
2013-05-31 09:49:00,58.6,46.8,30.29,WNW,303,4.0,12.0,65,0.00,,,0.00,Weather View 32 v70,2013-05-31 16:49:00,
2013-05-31 09:54:00,59.2,47.4,30.28,NW,304,3.0,12.0,65,0.00,,,0.00,Weather View 32 v70,2013-05-31 16:54:00,
2013-05-31 09:59:00,59.8,46.7,30.28,WNW,287,2.0,12.0,62,0.00,,,0.00,Weather View 32 v70,2013-05-31 16:59:00,
2013-05-31 10:04:00,60.5,47.0,30.28,WNW,296,9.0,12.0,61,0.00,,,0.00,Weather View 32 v70,2013-05-31 17:04:00,
2013-05-31 10:09:00,60.9,46.0,30.28,WNW,296,7.0,12.0,58,0.00,,,0.00,Weather View 32 v70,2013-05-31 17:09:00,
2013-05-31 10:14:00,61.0,45.2,30.28,WNW,300,4.0,12.0,56,0.00,,,0.00,Weather View 32 v70,2013-05-31 17:14:00,
2013-05-31 10:19:00,61.5,44.7,30.28,West,275,3.0,12.0,54,0.00,,,0.00,Weather View 32 v70,2013-05-31 17:19:00,
2013-05-31 10:24:00,61.6,44.8,30.28,WNW,288,6.0,12.0,54,0.00,,,0.00,Weather View 32 v70,2013-05-31 17:24:00,
2013-05-31 10:29:00,60.9,44.6,30.28,West,265,9.0,12.0,55,0.00,,,0.00,Weather View 32 v70,2013-05-31 17:29:00,
2013-05-31 10:34:00,60.9,43.6,30.28,WNW,282,5.0,12.0,53,0.00,,,0.00,Weather View 32 v70,2013-05-31 17:34:00,
2013-05-31 10:39:00,61.5,44.7,30.28,WNW,299,5.0,12.0,54,0.00,,,0.00,Weather View 32 v70,2013-05-31 17:39:00,
2013-05-31 10:44:00,62.3,44.9,30.28,WSW,258,6.0,12.0,53,0.00,,,0.00,Weather View 32 v70,2013-05-31 17:44:00,
2013-05-31 10:49:00,62.1,43.2,30.28,West,275,2.0,12.0,50,0.00,,,0.00,Weather View 32 v70,2013-05-31 17:49:00,
2013-05-31 10:54:00,62.4,42.4,30.28,WNW,294,5.0,14.0,48,0.00,,,0.00,Weather View 32 v70,2013-05-31 17:54:00,
2013-05-31 10:59:00,62.4,43.5,30.28,West,270,4.0,14.0,50,0.00,,,0.00,Weather View 32 v70,2013-05-31 17:59:00,
2013-05-31 11:04:00,62.4,41.3,30.28,WNW,286,10.0,14.0,46,0.00,,,0.00,Weather View 32 v70,2013-05-31 18:04:00,
2013-05-31 11:09:00,62.6,40.3,30.28,WNW,296,6.0,14.0,44,0.00,,,0.00,Weather View 32 v70,2013-05-31 18:09:00,
2013-05-31 11:14:00,62.9,40.6,30.28,West,277,1.0,14.0,44,0.00,,,0.00,Weather View 32 v70,2013-05-31 18:14:00,
2013-05-31 11:19:00,62.9,40.6,30.28,West,279,9.0,14.0,44,0.00,,,0.00,Weather View 32 v70,2013-05-31 18:19:00,
2013-05-31 11:24:00,63.2,40.3,30.28,West,275,3.0,14.0,43,0.00,,,0.00,Weather View 32 v70,2013-05-31 18:24:00,
2013-05-31 11:29:00,63.9,40.9,30.28,NW,309,2.0,14.0,43,0.00,,,0.00,Weather View 32 v70,2013-05-31 18:29:00,
2013-05-31 11:34:00,64.2,41.8,30.27,WNW,294,2.0,14.0,44,0.00,,,0.00,Weather View 32 v70,2013-05-31 18:34:00,
2013-05-31 11:39:00,64.5,42.6,30.27,NW,309,0.0,14.0,45,0.00,,,0.00,Weather View 32 v70,2013-05-31 18:39:00,
2013-05-31 11:44:00,64.7,42.2,30.27,WNW,298,3.0,14.0,44,0.00,,,0.00,Weather View 32 v70,2013-05-31 18:44:00,
2013-05-31 11:49:00,65.0,43.1,30.27,WNW,291,7.0,14.0,45,0.00,,,0.00,Weather View 32 v70,2013-05-31 18:49:00,
2013-05-31 11:54:00,65.0,41.9,30.27,WNW,288,5.0,14.0,43,0.00,,,0.00,Weather View 32 v70,2013-05-31 18:54:00,
2013-05-31 11:59:00,65.3,42.2,30.27,NW,311,3.0,14.0,43,0.00,,,0.00,Weather View 32 v70,2013-05-31 18:59:00,
2013-05-31 12:04:00,65.5,42.4,30.27,WNW,302,7.0,14.0,43,0.00,,,0.00,Weather View 32 v70,2013-05-31 19:04:00,
2013-05-31 12:09:00,65.3,41.6,30.27,WNW,300,2.0,14.0,42,0.00,,,0.00,Weather View 32 v70,2013-05-31 19:09:00,
2013-05-31 12:14:00,65.3,40.9,30.27,WNW,288,4.0,14.0,41,0.00,,,0.00,Weather View 32 v70,2013-05-31 19:14:00,
2013-05-31 12:19:00,65.6,42.4,30.27,NW,313,4.0,14.0,43,0.00,,,0.00,Weather View 32 v70,2013-05-31 19:19:00,
2013-05-31 12:24:00,66.0,40.9,30.26,West,272,0.0,14.0,40,0.00,,,0.00,Weather View 32 v70,2013-05-31 19:24:00,
2013-05-31 12:29:00,65.8,42.0,30.26,WNW,300,4.0,12.0,42,0.00,,,0.00,Weather View 32 v70,2013-05-31 19:29:00,
2013-05-31 12:34:00,66.3,43.1,30.26,WNW,282,5.0,12.0,43,0.00,,,0.00,Weather View 32 v70,2013-05-31 19:34:00,
2013-05-31 12:39:00,66.4,42.6,30.26,West,279,1.0,12.0,42,0.00,,,0.00,Weather View 32 v70,2013-05-31 19:39:00,
2013-05-31 12:44:00,66.6,43.3,30.26,WNW,299,5.0,12.0,43,0.00,,,0.00,Weather View 32 v70,2013-05-31 19:44:00,
2013-05-31 12:49:00,66.4,41.9,30.26,West,275,7.0,12.0,41,0.00,,,0.00,Weather View 32 v70,2013-05-31 19:49:00,
2013-05-31 12:54:00,66.6,42.1,30.26,WNW,292,4.0,12.0,41,0.00,,,0.00,Weather View 32 v70,2013-05-31 19:54:00,
2013-05-31 12:59:00,66.8,41.6,30.26,WNW,289,7.0,12.0,40,0.00,,,0.00,Weather View 32 v70,2013-05-31 19:59:00,
2013-05-31 13:04:00,66.9,42.4,30.25,WNW,300,2.0,12.0,41,0.00,,,0.00,Weather View 32 v70,2013-05-31 20:04:00,
2013-05-31 13:09:00,67.3,42.7,30.25,West,273,1.0,11.0,41,0.00,,,0.00,Weather View 32 v70,2013-05-31 20:09:00,
2013-05-31 13:14:00,67.3,42.7,30.25,NNW,340,4.0,11.0,41,0.00,,,0.00,Weather View 32 v70,2013-05-31 20:14:00,
2013-05-31 13:19:00,67.3,42.1,30.25,WNW,284,3.0,12.0,40,0.00,,,0.00,Weather View 32 v70,2013-05-31 20:19:00,
2013-05-31 13:24:00,67.3,42.1,30.25,NNW,329,1.0,12.0,40,0.00,,,0.00,Weather View 32 v70,2013-05-31 20:24:00,
2013-05-31 13:29:00,68.1,43.5,30.25,West,271,5.0,12.0,41,0.00,,,0.00,Weather View 32 v70,2013-05-31 20:29:00,
2013-05-31 13:34:00,67.9,42.0,30.24,WNW,285,6.0,12.0,39,0.00,,,0.00,Weather View 32 v70,2013-05-31 20:34:00,
2013-05-31 13:39:00,68.4,42.4,30.24,West,273,3.0,12.0,39,0.00,,,0.00,Weather View 32 v70,2013-05-31 20:39:00,
2013-05-31 13:44:00,68.3,43.0,30.24,NW,309,8.0,12.0,40,0.00,,,0.00,Weather View 32 v70,2013-05-31 20:44:00,
2013-05-31 13:49:00,68.4,42.4,30.24,WNW,302,5.0,12.0,39,0.00,,,0.00,Weather View 32 v70,2013-05-31 20:49:00,
2013-05-31 13:54:00,68.4,43.1,30.24,NW,309,7.0,12.0,40,0.00,,,0.00,Weather View 32 v70,2013-05-31 20:54:00,
2013-05-31 13:59:00,68.6,43.3,30.24,West,271,4.0,12.0,40,0.00,,,0.00,Weather View 32 v70,2013-05-31 20:59:00,
2013-05-31 14:04:00,68.3,43.0,30.23,WNW,301,2.0,12.0,40,0.00,,,0.00,Weather View 32 v70,2013-05-31 21:04:00,
2013-05-31 14:09:00,68.4,42.4,30.23,WNW,282,2.0,12.0,39,0.00,,,0.00,Weather View 32 v70,2013-05-31 21:09:00,
2013-05-31 14:14:00,68.9,44.2,30.23,WNW,286,5.0,12.0,41,0.00,,,0.00,Weather View 32 v70,2013-05-31 21:14:00,
2013-05-31 14:19:00,68.9,41.5,30.23,WNW,302,6.0,12.0,37,0.00,,,0.00,Weather View 32 v70,2013-05-31 21:19:00,
2013-05-31 14:24:00,68.8,43.4,30.22,NW,307,6.0,12.0,40,0.00,,,0.00,Weather View 32 v70,2013-05-31 21:24:00,
2013-05-31 14:29:00,69.3,42.5,30.23,WNW,289,4.0,12.0,38,0.00,,,0.00,Weather View 32 v70,2013-05-31 21:29:00,
2013-05-31 14:34:00,69.1,41.0,30.22,SW,217,6.0,13.0,36,0.00,,,0.00,Weather View 32 v70,2013-05-31 21:34:00,
2013-05-31 14:39:00,69.1,41.7,30.22,WSW,249,8.0,13.0,37,0.00,,,0.00,Weather View 32 v70,2013-05-31 21:39:00,
2013-05-31 14:44:00,69.3,41.8,30.22,West,275,3.0,13.0,37,0.00,,,0.00,Weather View 32 v70,2013-05-31 21:44:00,
2013-05-31 14:49:00,69.3,41.8,30.22,WSW,245,2.0,13.0,37,0.00,,,0.00,Weather View 32 v70,2013-05-31 21:49:00,
2013-05-31 14:54:00,69.9,41.7,30.22,NW,304,6.0,13.0,36,0.00,,,0.00,Weather View 32 v70,2013-05-31 21:54:00,
2013-05-31 14:58:00,70.1,42.5,30.22,WNW,295,4.0,13.0,37,0.00,,,0.00,Weather View 32 v70,2013-05-31 21:58:00,
2013-05-31 15:03:00,70.1,41.8,30.22,West,259,2.0,13.0,36,0.00,,,0.00,Weather View 32 v70,2013-05-31 22:03:00,
2013-05-31 15:08:00,70.1,43.2,30.22,WNW,284,4.0,13.0,38,0.00,,,0.00,Weather View 32 v70,2013-05-31 22:08:00,
2013-05-31 15:13:00,70.8,41.7,30.22,WNW,290,3.0,13.0,35,0.00,,,0.00,Weather View 32 v70,2013-05-31 22:13:00,
2013-05-31 15:18:00,70.6,40.8,30.21,WNW,288,2.0,13.0,34,0.00,,,0.00,Weather View 32 v70,2013-05-31 22:18:00,
2013-05-31 15:23:00,70.8,42.5,30.21,NW,313,7.0,13.0,36,0.00,,,0.00,Weather View 32 v70,2013-05-31 22:23:00,
2013-05-31 15:28:00,70.6,43.0,30.21,WNW,292,5.0,13.0,37,0.00,,,0.00,Weather View 32 v70,2013-05-31 22:28:00,
2013-05-31 15:33:00,70.9,43.3,30.21,WNW,302,11.0,13.0,37,0.00,,,0.00,Weather View 32 v70,2013-05-31 22:33:00,
2013-05-31 15:38:00,70.9,42.5,30.21,WNW,286,3.0,12.0,36,0.00,,,0.00,Weather View 32 v70,2013-05-31 22:38:00,
2013-05-31 15:43:00,70.9,41.8,30.21,WSW,251,3.0,13.0,35,0.00,,,0.00,Weather View 32 v70,2013-05-31 22:43:00,
2013-05-31 15:48:00,71.1,42.0,30.21,West,267,5.0,13.0,35,0.00,,,0.00,Weather View 32 v70,2013-05-31 22:48:00,
2013-05-31 15:54:00,71.1,42.0,30.21,NW,309,7.0,13.0,35,0.00,,,0.00,Weather View 32 v70,2013-05-31 22:54:00,
2013-05-31 15:58:00,71.1,42.0,30.21,West,281,4.0,13.0,35,0.00,,,0.00,Weather View 32 v70,2013-05-31 22:58:00,
2013-05-31 16:03:00,70.9,41.8,30.20,West,261,3.0,13.0,35,0.00,,,0.00,Weather View 32 v70,2013-05-31 23:03:00,
2013-05-31 16:08:00,71.1,43.4,30.20,West,273,7.0,13.0,37,0.00,,,0.00,Weather View 32 v70,2013-05-31 23:08:00,
2013-05-31 16:13:00,71.1,42.7,30.20,NW,307,6.0,13.0,36,0.00,,,0.00,Weather View 32 v70,2013-05-31 23:13:00,
2013-05-31 16:18:00,71.3,42.9,30.20,WNW,282,7.0,14.0,36,0.00,,,0.00,Weather View 32 v70,2013-05-31 23:18:00,
2013-05-31 16:23:00,71.3,42.2,30.20,NW,308,7.0,14.0,35,0.00,,,0.00,Weather View 32 v70,2013-05-31 23:23:00,
2013-05-31 16:28:00,71.6,42.4,30.20,WNW,300,4.0,14.0,35,0.00,,,0.00,Weather View 32 v70,2013-05-31 23:28:00,
2013-05-31 16:33:00,71.5,42.3,30.20,West,270,4.0,14.0,35,0.00,,,0.00,Weather View 32 v70,2013-05-31 23:33:00,
2013-05-31 16:38:00,71.3,42.2,30.20,WNW,300,3.0,14.0,35,0.00,,,0.00,Weather View 32 v70,2013-05-31 23:38:00,
2013-05-31 16:43:00,71.5,43.8,30.20,WNW,297,7.0,14.0,37,0.00,,,0.00,Weather View 32 v70,2013-05-31 23:43:00,
2013-05-31 16:46:00,71.6,43.9,30.20,WNW,300,3.0,14.0,37,0.00,,,0.00,Weather View 32 v70,2013-05-31 23:46:00,
2013-05-31 16:47:00,71.8,44.8,30.19,WNW,298,4.0,14.0,38,0.00,,,0.00,Weather View 32 v70,2013-05-31 23:47:00,
2013-05-31 16:48:00,72.0,43.5,30.20,WNW,300,5.0,14.0,36,0.00,,,0.00,Weather View 32 v70,2013-05-31 23:48:00,
2013-05-31 16:49:00,72.0,42.8,30.20,WNW,302,1.0,14.0,35,0.00,,,0.00,Weather View 32 v70,2013-05-31 23:49:00,
2013-05-31 16:50:00,72.1,43.6,30.20,WNW,302,7.0,14.0,36,0.00,,,0.00,Weather View 32 v70,2013-05-31 23:50:00,
2013-05-31 16:51:00,72.1,42.1,30.19,NW,306,2.0,14.0,34,0.00,,,0.00,Weather View 32 v70,2013-05-31 23:51:00,
2013-05-31 17:02:00,72.1,42.1,30.19,NW,306,3.0,14.0,34,0.00,,,0.00,Weather View 32 v70,2013-06-01 00:02:00,
2013-05-31 17:07:00,71.5,42.3,30.19,NW,317,8.0,15.0,35,0.00,,,0.00,Weather View 32 v70,2013-06-01 00:07:00,
2013-05-31 17:12:00,71.5,42.3,30.19,WNW,287,3.0,15.0,35,0.00,,,0.00,Weather View 32 v70,2013-06-01 00:12:00,
2013-05-31 17:17:00,71.3,42.2,30.19,WNW,290,6.0,15.0,35,0.00,,,0.00,Weather View 32 v70,2013-06-01 00:17:00,
2013-05-31 17:22:00,71.1,41.2,30.19,NW,306,3.0,15.0,34,0.00,,,0.00,Weather View 32 v70,2013-06-01 00:22:00,
2013-05-31 17:27:00,71.3,42.9,30.19,NW,312,5.0,15.0,36,0.00,,,0.00,Weather View 32 v70,2013-06-01 00:27:00,
2013-05-31 17:32:00,71.3,43.6,30.19,West,277,4.0,15.0,37,0.00,,,0.00,Weather View 32 v70,2013-06-01 00:32:00,
2013-05-31 17:37:00,71.3,45.0,30.19,West,279,4.0,15.0,39,0.00,,,0.00,Weather View 32 v70,2013-06-01 00:37:00,
2013-05-31 17:42:00,71.5,44.5,30.19,WNW,283,2.0,15.0,38,0.00,,,0.00,Weather View 32 v70,2013-06-01 00:42:00,
2013-05-31 17:47:00,70.8,44.5,30.19,WSW,258,7.0,16.0,39,0.00,,,0.00,Weather View 32 v70,2013-06-01 00:47:00,
2013-05-31 17:52:00,70.8,44.5,30.19,NW,324,5.0,16.0,39,0.00,,,0.00,Weather View 32 v70,2013-06-01 00:52:00,
2013-05-31 17:57:00,70.3,43.4,30.19,NW,308,2.0,16.0,38,0.00,,,0.00,Weather View 32 v70,2013-06-01 00:57:00,
2013-05-31 18:02:00,70.4,43.5,30.18,West,281,6.0,16.0,38,0.00,,,0.00,Weather View 32 v70,2013-06-01 01:02:00,
2013-05-31 18:07:00,70.6,43.7,30.18,WNW,303,7.0,16.0,38,0.00,,,0.00,Weather View 32 v70,2013-06-01 01:07:00,
2013-05-31 18:12:00,70.6,44.4,30.18,WNW,296,4.0,16.0,39,0.00,,,0.00,Weather View 32 v70,2013-06-01 01:12:00,
2013-05-31 18:17:00,70.4,44.2,30.18,West,263,3.0,16.0,39,0.00,,,0.00,Weather View 32 v70,2013-06-01 01:17:00,
2013-05-31 18:22:00,69.9,43.7,30.19,West,281,4.0,16.0,39,0.00,,,0.00,Weather View 32 v70,2013-06-01 01:22:00,
2013-05-31 18:27:00,70.1,45.2,30.18,WNW,294,5.0,16.0,41,0.00,,,0.00,Weather View 32 v70,2013-06-01 01:27:00,
2013-05-31 18:32:00,70.1,44.6,30.18,West,273,3.0,16.0,40,0.00,,,0.00,Weather View 32 v70,2013-06-01 01:32:00,
2013-05-31 18:37:00,69.9,45.1,30.18,West,278,4.0,16.0,41,0.00,,,0.00,Weather View 32 v70,2013-06-01 01:37:00,
2013-05-31 18:42:00,69.8,44.3,30.18,WNW,292,3.0,16.0,40,0.00,,,0.00,Weather View 32 v70,2013-06-01 01:42:00,
2013-05-31 18:47:00,69.6,44.8,30.18,NW,309,5.0,14.0,41,0.00,,,0.00,Weather View 32 v70,2013-06-01 01:47:00,
2013-05-31 18:52:00,69.3,45.2,30.18,WNW,302,7.0,14.0,42,0.00,,,0.00,Weather View 32 v70,2013-06-01 01:52:00,
2013-05-31 18:57:00,69.3,44.5,30.18,WNW,291,2.0,14.0,41,0.00,,,0.00,Weather View 32 v70,2013-06-01 01:57:00,
2013-05-31 19:02:00,69.3,43.9,30.18,WNW,298,5.0,14.0,40,0.00,,,0.00,Weather View 32 v70,2013-06-01 02:02:00,
2013-05-31 19:07:00,69.3,44.5,30.18,NW,310,3.0,14.0,41,0.00,,,0.00,Weather View 32 v70,2013-06-01 02:07:00,
2013-05-31 19:12:00,69.3,43.9,30.18,WNW,298,6.0,14.0,40,0.00,,,0.00,Weather View 32 v70,2013-06-01 02:12:00,
2013-05-31 19:17:00,68.9,44.2,30.18,NW,319,3.0,13.0,41,0.00,,,0.00,Weather View 32 v70,2013-06-01 02:17:00,
2013-05-31 19:22:00,68.6,43.9,30.18,WNW,296,2.0,13.0,41,0.00,,,0.00,Weather View 32 v70,2013-06-01 02:22:00,
2013-05-31 19:27:00,68.3,43.6,30.18,WNW,294,10.0,13.0,41,0.00,,,0.00,Weather View 32 v70,2013-06-01 02:27:00,
2013-05-31 19:32:00,67.9,43.9,30.18,West,267,4.0,14.0,42,0.00,,,0.00,Weather View 32 v70,2013-06-01 02:32:00,
2013-05-31 19:37:00,67.6,44.2,30.18,NW,304,10.0,14.0,43,0.00,,,0.00,Weather View 32 v70,2013-06-01 02:37:00,
2013-05-31 19:42:00,67.1,44.4,30.18,WNW,293,5.0,14.0,44,0.00,,,0.00,Weather View 32 v70,2013-06-01 02:42:00,
2013-05-31 19:47:00,66.4,44.4,30.17,NW,305,2.0,14.0,45,0.00,,,0.00,Weather View 32 v70,2013-06-01 02:47:00,
2013-05-31 19:52:00,66.1,44.7,30.17,West,281,2.0,14.0,46,0.00,,,0.00,Weather View 32 v70,2013-06-01 02:52:00,
2013-05-31 19:57:00,65.8,45.0,30.17,WNW,294,3.0,14.0,47,0.00,,,0.00,Weather View 32 v70,2013-06-01 02:57:00,
2013-05-31 20:02:00,65.8,45.0,30.17,WNW,284,6.0,14.0,47,0.00,,,0.00,Weather View 32 v70,2013-06-01 03:02:00,
2013-05-31 20:07:00,65.6,45.3,30.17,WNW,285,3.0,14.0,48,0.00,,,0.00,Weather View 32 v70,2013-06-01 03:07:00,
2013-05-31 20:12:00,65.6,45.3,30.18,WNW,286,4.0,14.0,48,0.00,,,0.00,Weather View 32 v70,2013-06-01 03:12:00,
2013-05-31 20:17:00,65.5,45.2,30.17,NW,309,5.0,14.0,48,0.00,,,0.00,Weather View 32 v70,2013-06-01 03:17:00,
2013-05-31 20:22:00,65.3,45.1,30.17,WNW,296,3.0,14.0,48,0.00,,,0.00,Weather View 32 v70,2013-06-01 03:22:00,
2013-05-31 20:27:00,64.8,45.1,30.17,WNW,292,1.0,14.0,49,0.00,,,0.00,Weather View 32 v70,2013-06-01 03:27:00,
2013-05-31 20:32:00,64.3,45.2,30.18,WNW,296,5.0,14.0,50,0.00,,,0.00,Weather View 32 v70,2013-06-01 03:32:00,
2013-05-31 20:37:00,64.0,45.5,30.17,WNW,293,4.0,14.0,51,0.00,,,0.00,Weather View 32 v70,2013-06-01 03:37:00,
2013-05-31 20:42:00,63.7,45.2,30.17,NW,304,6.0,14.0,51,0.00,,,0.00,Weather View 32 v70,2013-06-01 03:42:00,
2013-05-31 20:47:00,63.5,45.5,30.17,West,281,7.0,14.0,52,0.00,,,0.00,Weather View 32 v70,2013-06-01 03:47:00,
2013-05-31 20:52:00,63.4,45.4,30.17,WNW,286,5.0,14.0,52,0.00,,,0.00,Weather View 32 v70,2013-06-01 03:52:00,
2013-05-31 20:57:00,63.2,45.7,30.18,WNW,286,5.0,14.0,53,0.00,,,0.00,Weather View 32 v70,2013-06-01 03:57:00,
2013-05-31 21:01:00,63.1,45.6,30.18,WNW,298,5.0,14.0,53,0.00,,,0.00,Weather View 32 v70,2013-06-01 04:01:00,
2013-05-31 21:06:00,62.9,46.0,30.18,WNW,292,2.0,16.0,54,0.00,,,0.00,Weather View 32 v70,2013-06-01 04:06:00,
2013-05-31 21:11:00,62.7,45.8,30.19,West,259,6.0,16.0,54,0.00,,,0.00,Weather View 32 v70,2013-06-01 04:11:00,
2013-05-31 21:16:00,62.6,45.7,30.19,WNW,288,6.0,16.0,54,0.00,,,0.00,Weather View 32 v70,2013-06-01 04:16:00,
2013-05-31 21:21:00,62.4,45.5,30.19,West,271,5.0,16.0,54,0.00,,,0.00,Weather View 32 v70,2013-06-01 04:21:00,
2013-05-31 21:26:00,62.4,45.5,30.19,West,265,6.0,16.0,54,0.00,,,0.00,Weather View 32 v70,2013-06-01 04:26:00,
2013-05-31 21:31:00,62.4,46.0,30.20,SW,226,7.0,16.0,55,0.00,,,0.00,Weather View 32 v70,2013-06-01 04:31:00,
2013-05-31 21:36:00,62.3,45.9,30.20,SW,234,3.0,16.0,55,0.00,,,0.00,Weather View 32 v70,2013-06-01 04:36:00,
2013-05-31 21:41:00,62.1,45.7,30.20,WSW,252,6.0,16.0,55,0.00,,,0.00,Weather View 32 v70,2013-06-01 04:41:00,
2013-05-31 21:46:00,61.8,45.9,30.20,WNW,283,3.0,16.0,56,0.00,,,0.00,Weather View 32 v70,2013-06-01 04:46:00,
2013-05-31 21:51:00,61.8,45.9,30.20,WNW,283,1.0,16.0,56,0.00,,,0.00,Weather View 32 v70,2013-06-01 04:51:00,
2013-05-31 21:56:00,61.6,45.7,30.20,WNW,285,1.0,16.0,56,0.00,,,0.00,Weather View 32 v70,2013-06-01 04:56:00,
2013-05-31 22:01:00,61.5,46.1,30.20,WNW,286,2.0,16.0,57,0.00,,,0.00,Weather View 32 v70,2013-06-01 05:01:00,
2013-05-31 22:06:00,61.2,45.8,30.20,WNW,286,2.0,13.0,57,0.00,,,0.00,Weather View 32 v70,2013-06-01 05:06:00,
2013-05-31 22:11:00,61.2,45.8,30.20,SW,227,4.0,13.0,57,0.00,,,0.00,Weather View 32 v70,2013-06-01 05:11:00,
2013-05-31 22:16:00,61.3,45.9,30.20,West,278,4.0,11.0,57,0.00,,,0.00,Weather View 32 v70,2013-06-01 05:16:00,
2013-05-31 22:21:00,61.3,45.9,30.20,North,0,8.0,11.0,57,0.00,,,0.00,Weather View 32 v70,2013-06-01 05:21:00,
2013-05-31 22:26:00,61.3,45.9,30.20,West,262,8.0,11.0,57,0.00,,,0.00,Weather View 32 v70,2013-06-01 05:26:00,
2013-05-31 22:31:00,61.3,45.9,30.20,SW,231,6.0,11.0,57,0.00,,,0.00,Weather View 32 v70,2013-06-01 05:31:00,
2013-05-31 22:36:00,61.3,45.9,30.20,West,261,2.0,11.0,57,0.00,,,0.00,Weather View 32 v70,2013-06-01 05:36:00,
2013-05-31 22:41:00,61.2,45.8,30.20,West,261,4.0,11.0,57,0.00,,,0.00,Weather View 32 v70,2013-06-01 05:41:00,
2013-05-31 22:46:00,60.9,46.0,30.20,West,273,0.0,11.0,58,0.00,,,0.00,Weather View 32 v70,2013-06-01 05:46:00,
2013-05-31 22:51:00,60.7,45.8,30.21,West,273,0.0,11.0,58,0.00,,,0.00,Weather View 32 v70,2013-06-01 05:51:00,
2013-05-31 22:56:00,60.4,46.0,30.20,West,273,0.0,11.0,59,0.00,,,0.00,Weather View 32 v70,2013-06-01 05:56:00,
2013-05-31 23:01:00,60.1,46.1,30.20,West,273,1.0,11.0,60,0.00,,,0.00,Weather View 32 v70,2013-06-01 06:01:00,
2013-05-31 23:06:00,59.8,45.9,30.20,West,273,0.0,11.0,60,0.00,,,0.00,Weather View 32 v70,2013-06-01 06:06:00,
2013-05-31 23:11:00,59.6,46.5,30.20,West,277,0.0,11.0,62,0.00,,,0.00,Weather View 32 v70,2013-06-01 06:11:00,
2013-05-31 23:16:00,59.0,46.8,30.20,NW,320,2.0,11.0,64,0.00,,,0.00,Weather View 32 v70,2013-06-01 06:16:00,
2013-05-31 23:21:00,58.7,46.5,30.20,WNW,298,1.0,10.0,64,0.00,,,0.00,Weather View 32 v70,2013-06-01 06:21:00,
2013-05-31 23:26:00,58.6,46.8,30.20,WNW,298,0.0,10.0,65,0.00,,,0.00,Weather View 32 v70,2013-06-01 06:26:00,
2013-05-31 23:31:00,58.4,46.7,30.21,WNW,296,1.0,10.0,65,0.00,,,0.00,Weather View 32 v70,2013-06-01 06:31:00,
2013-05-31 23:36:00,58.1,46.4,30.21,WNW,296,0.0,10.0,65,0.00,,,0.00,Weather View 32 v70,2013-06-01 06:36:00,
2013-05-31 23:41:00,57.6,45.9,30.21,WNW,296,0.0,10.0,65,0.00,,,0.00,Weather View 32 v70,2013-06-01 06:41:00,
2013-05-31 23:46:00,57.2,45.9,30.20,WNW,296,0.0,7.0,66,0.00,,,0.00,Weather View 32 v70,2013-06-01 06:46:00,
2013-05-31 23:51:00,56.7,45.8,30.20,WNW,296,0.0,7.0,67,0.00,,,0.00,Weather View 32 v70,2013-06-01 06:51:00,
2013-05-31 23:56:00,56.5,46.0,30.20,WNW,296,0.0,7.0,68,0.00,,,0.00,Weather View 32 v70,2013-06-01 06:56:00,